sensor_id;sensor_type;location;lat;lon;timestamp;temperature;humidity
41838;DHT22;27511;52.042;5.178;2023-08-24T00:01:56;22.90;99.90
41838;DHT22;27511;52.042;5.178;2023-08-24T00:04:21;22.90;99.90
41838;DHT22;27511;52.042;5.178;2023-08-24T00:06:48;22.80;99.90
41838;DHT22;27511;52.042;5.178;2023-08-24T00:09:13;22.80;99.90
41838;DHT22;27511;52.042;5.178;2023-08-24T00:11:40;22.70;99.90
41838;DHT22;27511;52.042;5.178;2023-08-24T00:14:06;22.70;99.90
41838;DHT22;27511;52.042;5.178;2023-08-24T00:16:32;22.70;99.90
41838;DHT22;27511;52.042;5.178;2023-08-24T00:18:57;22.70;99.90
41838;DHT22;27511;52.042;5.178;2023-08-24T00:21:23;22.70;99.90
41838;DHT22;27511;52.042;5.178;2023-08-24T00:23:49;22.70;99.90
41838;DHT22;27511;52.042;5.178;2023-08-24T00:26:15;22.70;99.90
41838;DHT22;27511;52.042;5.178;2023-08-24T00:28:43;22.70;99.90
41838;DHT22;27511;52.042;5.178;2023-08-24T00:31:09;22.70;99.90
41838;DHT22;27511;52.042;5.178;2023-08-24T00:33:34;22.70;99.90
41838;DHT22;27511;52.042;5.178;2023-08-24T00:36:03;22.70;99.90
41838;DHT22;27511;52.042;5.178;2023-08-24T00:38:29;22.70;99.90
41838;DHT22;27511;52.042;5.178;2023-08-24T00:40:55;22.60;99.90
41838;DHT22;27511;52.042;5.178;2023-08-24T00:43:20;22.60;99.90
41838;DHT22;27511;52.042;5.178;2023-08-24T00:45:52;22.70;99.90
41838;DHT22;27511;52.042;5.178;2023-08-24T00:48:19;22.60;99.90
41838;DHT22;27511;52.042;5.178;2023-08-24T00:50:45;22.70;99.90
41838;DHT22;27511;52.042;5.178;2023-08-24T00:53:11;22.70;99.90
41838;DHT22;27511;52.042;5.178;2023-08-24T00:55:36;22.70;99.90
41838;DHT22;27511;52.042;5.178;2023-08-24T00:58:02;22.60;99.90
41838;DHT22;27511;52.042;5.178;2023-08-24T01:00:28;22.60;99.90
41838;DHT22;27511;52.042;5.178;2023-08-24T01:02:54;22.50;99.90
41838;DHT22;27511;52.042;5.178;2023-08-24T01:05:20;22.60;99.90
41838;DHT22;27511;52.042;5.178;2023-08-24T01:07:46;22.60;99.90
41838;DHT22;27511;52.042;5.178;2023-08-24T01:10:11;22.60;99.90
41838;DHT22;27511;52.042;5.178;2023-08-24T01:17:49;22.60;99.90
41838;DHT22;27511;52.042;5.178;2023-08-24T01:20:15;22.50;99.90
41838;DHT22;27511;52.042;5.178;2023-08-24T01:27:52;22.50;99.90
41838;DHT22;27511;52.042;5.178;2023-08-24T01:30:17;22.50;99.90
41838;DHT22;27511;52.042;5.178;2023-08-24T01:32:43;22.50;99.90
41838;DHT22;27511;52.042;5.178;2023-08-24T01:35:09;22.60;99.90
41838;DHT22;27511;52.042;5.178;2023-08-24T01:37:35;22.60;99.90
41838;DHT22;27511;52.042;5.178;2023-08-24T01:42:43;22.50;99.90
41838;DHT22;27511;52.042;5.178;2023-08-24T01:45:10;22.60;99.90
41838;DHT22;27511;52.042;5.178;2023-08-24T01:47:36;22.50;99.90
41838;DHT22;27511;52.042;5.178;2023-08-24T01:50:02;22.60;99.90
41838;DHT22;27511;52.042;5.178;2023-08-24T01:52:29;22.60;99.90
41838;DHT22;27511;52.042;5.178;2023-08-24T01:54:55;22.60;99.90
41838;DHT22;27511;52.042;5.178;2023-08-24T01:57:20;22.60;99.90
41838;DHT22;27511;52.042;5.178;2023-08-24T01:59:46;22.50;99.90
41838;DHT22;27511;52.042;5.178;2023-08-24T02:02:11;22.40;99.90
41838;DHT22;27511;52.042;5.178;2023-08-24T02:04:36;22.50;99.90
41838;DHT22;27511;52.042;5.178;2023-08-24T02:07:02;22.50;99.90
41838;DHT22;27511;52.042;5.178;2023-08-24T02:09:27;22.50;99.90
41838;DHT22;27511;52.042;5.178;2023-08-24T02:11:53;22.60;99.90
41838;DHT22;27511;52.042;5.178;2023-08-24T02:14:18;22.60;99.90
41838;DHT22;27511;52.042;5.178;2023-08-24T02:16:44;22.50;99.90
41838;DHT22;27511;52.042;5.178;2023-08-24T02:19:09;22.60;99.90
41838;DHT22;27511;52.042;5.178;2023-08-24T02:21:35;22.50;99.90
41838;DHT22;27511;52.042;5.178;2023-08-24T02:24:02;22.40;99.90
41838;DHT22;27511;52.042;5.178;2023-08-24T02:26:27;22.40;99.90
41838;DHT22;27511;52.042;5.178;2023-08-24T02:28:53;22.40;99.90
41838;DHT22;27511;52.042;5.178;2023-08-24T02:31:18;22.40;99.90
41838;DHT22;27511;52.042;5.178;2023-08-24T02:33:44;22.40;99.90
41838;DHT22;27511;52.042;5.178;2023-08-24T02:36:09;22.40;99.90
41838;DHT22;27511;52.042;5.178;2023-08-24T02:38:35;22.30;99.90
41838;DHT22;27511;52.042;5.178;2023-08-24T02:41:01;22.30;99.90
41838;DHT22;27511;52.042;5.178;2023-08-24T02:43:27;22.40;99.90
41838;DHT22;27511;52.042;5.178;2023-08-24T02:45:53;22.40;99.90
41838;DHT22;27511;52.042;5.178;2023-08-24T02:48:18;22.40;99.90
41838;DHT22;27511;52.042;5.178;2023-08-24T02:50:45;22.30;99.90
41838;DHT22;27511;52.042;5.178;2023-08-24T02:53:11;22.30;99.90
41838;DHT22;27511;52.042;5.178;2023-08-24T02:55:36;22.30;99.90
41838;DHT22;27511;52.042;5.178;2023-08-24T02:58:02;22.40;99.90
41838;DHT22;27511;52.042;5.178;2023-08-24T03:00:27;22.40;99.90
41838;DHT22;27511;52.042;5.178;2023-08-24T03:02:53;22.30;99.90
41838;DHT22;27511;52.042;5.178;2023-08-24T03:05:18;22.40;99.90
41838;DHT22;27511;52.042;5.178;2023-08-24T03:07:43;22.20;99.90
41838;DHT22;27511;52.042;5.178;2023-08-24T03:10:09;22.30;99.90
41838;DHT22;27511;52.042;5.178;2023-08-24T03:12:35;22.40;99.90
41838;DHT22;27511;52.042;5.178;2023-08-24T03:15:00;22.40;99.90
41838;DHT22;27511;52.042;5.178;2023-08-24T03:17:26;22.30;99.90
41838;DHT22;27511;52.042;5.178;2023-08-24T03:19:51;22.30;99.90
41838;DHT22;27511;52.042;5.178;2023-08-24T03:22:16;22.30;99.90
41838;DHT22;27511;52.042;5.178;2023-08-24T03:24:42;22.30;99.90
41838;DHT22;27511;52.042;5.178;2023-08-24T03:27:08;22.30;99.90
41838;DHT22;27511;52.042;5.178;2023-08-24T03:29:33;22.20;99.90
41838;DHT22;27511;52.042;5.178;2023-08-24T03:31:59;22.20;99.90
41838;DHT22;27511;52.042;5.178;2023-08-24T03:34:25;22.30;99.90
41838;DHT22;27511;52.042;5.178;2023-08-24T03:36:50;22.40;99.90
41838;DHT22;27511;52.042;5.178;2023-08-24T03:39:16;22.20;99.90
41838;DHT22;27511;52.042;5.178;2023-08-24T03:41:41;22.10;99.90
41838;DHT22;27511;52.042;5.178;2023-08-24T03:44:07;22.00;99.90
41838;DHT22;27511;52.042;5.178;2023-08-24T03:46:32;22.00;99.90
41838;DHT22;27511;52.042;5.178;2023-08-24T03:48:59;22.10;99.90
41838;DHT22;27511;52.042;5.178;2023-08-24T03:51:24;22.10;99.90
41838;DHT22;27511;52.042;5.178;2023-08-24T03:53:50;22.10;99.90
41838;DHT22;27511;52.042;5.178;2023-08-24T03:56:15;22.20;99.90
41838;DHT22;27511;52.042;5.178;2023-08-24T03:58:41;22.10;99.90
41838;DHT22;27511;52.042;5.178;2023-08-24T04:01:09;22.10;99.90
41838;DHT22;27511;52.042;5.178;2023-08-24T04:03:35;22.10;99.90
41838;DHT22;27511;52.042;5.178;2023-08-24T04:06:01;22.00;99.90
41838;DHT22;27511;52.042;5.178;2023-08-24T04:08:26;22.00;99.90
41838;DHT22;27511;52.042;5.178;2023-08-24T04:10:52;22.00;99.90
41838;DHT22;27511;52.042;5.178;2023-08-24T04:13:17;22.00;99.90
41838;DHT22;27511;52.042;5.178;2023-08-24T04:15:43;22.00;99.90
41838;DHT22;27511;52.042;5.178;2023-08-24T04:18:08;21.90;99.90
41838;DHT22;27511;52.042;5.178;2023-08-24T04:20:34;21.90;99.90
41838;DHT22;27511;52.042;5.178;2023-08-24T04:22:59;21.90;99.90
41838;DHT22;27511;52.042;5.178;2023-08-24T04:25:25;21.90;99.90
41838;DHT22;27511;52.042;5.178;2023-08-24T04:27:50;21.90;99.90
41838;DHT22;27511;52.042;5.178;2023-08-24T04:30:16;21.90;99.90
41838;DHT22;27511;52.042;5.178;2023-08-24T04:32:41;21.90;99.90
41838;DHT22;27511;52.042;5.178;2023-08-24T04:35:07;21.90;99.90
41838;DHT22;27511;52.042;5.178;2023-08-24T04:37:33;21.90;99.90
41838;DHT22;27511;52.042;5.178;2023-08-24T04:39:58;21.80;99.90
41838;DHT22;27511;52.042;5.178;2023-08-24T04:42:24;21.90;99.90
41838;DHT22;27511;52.042;5.178;2023-08-24T04:44:50;21.90;99.90
41838;DHT22;27511;52.042;5.178;2023-08-24T04:47:16;21.90;99.90
41838;DHT22;27511;52.042;5.178;2023-08-24T04:49:41;21.90;99.90
41838;DHT22;27511;52.042;5.178;2023-08-24T04:52:07;21.90;99.90
41838;DHT22;27511;52.042;5.178;2023-08-24T04:54:33;21.90;99.90
41838;DHT22;27511;52.042;5.178;2023-08-24T04:56:59;21.90;99.90
41838;DHT22;27511;52.042;5.178;2023-08-24T04:59:24;21.80;99.90
41838;DHT22;27511;52.042;5.178;2023-08-24T05:01:50;21.70;99.90
41838;DHT22;27511;52.042;5.178;2023-08-24T05:04:15;21.80;99.90
41838;DHT22;27511;52.042;5.178;2023-08-24T05:06:41;21.80;99.90
41838;DHT22;27511;52.042;5.178;2023-08-24T05:09:06;21.80;99.90
41838;DHT22;27511;52.042;5.178;2023-08-24T05:11:31;21.80;99.90
41838;DHT22;27511;52.042;5.178;2023-08-24T05:13:57;21.80;99.90
41838;DHT22;27511;52.042;5.178;2023-08-24T05:16:23;21.80;99.90
41838;DHT22;27511;52.042;5.178;2023-08-24T05:18:48;21.80;99.90
41838;DHT22;27511;52.042;5.178;2023-08-24T05:21:14;21.90;99.90
41838;DHT22;27511;52.042;5.178;2023-08-24T05:23:39;21.80;99.90
41838;DHT22;27511;52.042;5.178;2023-08-24T05:26:05;21.90;99.90
41838;DHT22;27511;52.042;5.178;2023-08-24T05:28:30;22.00;99.90
41838;DHT22;27511;52.042;5.178;2023-08-24T05:30:56;21.90;99.90
41838;DHT22;27511;52.042;5.178;2023-08-24T05:33:22;21.80;99.90
41838;DHT22;27511;52.042;5.178;2023-08-24T05:35:48;21.90;99.90
41838;DHT22;27511;52.042;5.178;2023-08-24T05:38:14;21.80;99.90
41838;DHT22;27511;52.042;5.178;2023-08-24T05:40:39;21.80;99.90
41838;DHT22;27511;52.042;5.178;2023-08-24T05:43:06;21.90;99.90
41838;DHT22;27511;52.042;5.178;2023-08-24T05:45:32;22.00;99.90
41838;DHT22;27511;52.042;5.178;2023-08-24T05:47:57;21.80;99.90
41838;DHT22;27511;52.042;5.178;2023-08-24T05:50:23;21.90;99.90
41838;DHT22;27511;52.042;5.178;2023-08-24T05:52:48;22.00;99.90
41838;DHT22;27511;52.042;5.178;2023-08-24T05:55:14;22.10;99.90
41838;DHT22;27511;52.042;5.178;2023-08-24T05:57:39;22.10;99.90
41838;DHT22;27511;52.042;5.178;2023-08-24T06:00:07;22.10;99.90
41838;DHT22;27511;52.042;5.178;2023-08-24T06:02:35;22.20;99.90
41838;DHT22;27511;52.042;5.178;2023-08-24T06:05:00;22.40;99.90
41838;DHT22;27511;52.042;5.178;2023-08-24T06:07:26;22.50;99.90
41838;DHT22;27511;52.042;5.178;2023-08-24T06:09:51;22.70;99.90
41838;DHT22;27511;52.042;5.178;2023-08-24T06:12:17;23.00;99.90
41838;DHT22;27511;52.042;5.178;2023-08-24T06:14:43;23.20;99.90
41838;DHT22;27511;52.042;5.178;2023-08-24T06:17:08;23.20;99.90
41838;DHT22;27511;52.042;5.178;2023-08-24T06:19:34;23.10;99.90
41838;DHT22;27511;52.042;5.178;2023-08-24T06:21:59;23.00;99.90
41838;DHT22;27511;52.042;5.178;2023-08-24T06:24:24;22.90;99.90
41838;DHT22;27511;52.042;5.178;2023-08-24T06:26:50;22.90;99.90
41838;DHT22;27511;52.042;5.178;2023-08-24T06:29:15;22.70;99.90
41838;DHT22;27511;52.042;5.178;2023-08-24T06:31:41;22.80;99.90
41838;DHT22;27511;52.042;5.178;2023-08-24T06:34:06;22.70;99.90
41838;DHT22;27511;52.042;5.178;2023-08-24T06:36:32;22.70;99.90
41838;DHT22;27511;52.042;5.178;2023-08-24T06:38:57;22.60;99.90
41838;DHT22;27511;52.042;5.178;2023-08-24T06:41:24;22.60;99.90
41838;DHT22;27511;52.042;5.178;2023-08-24T06:43:49;22.50;99.90
41838;DHT22;27511;52.042;5.178;2023-08-24T06:46:15;22.60;99.90
41838;DHT22;27511;52.042;5.178;2023-08-24T06:48:40;22.60;99.90
41838;DHT22;27511;52.042;5.178;2023-08-24T06:51:09;22.60;99.90
41838;DHT22;27511;52.042;5.178;2023-08-24T06:53:35;22.60;99.90
41838;DHT22;27511;52.042;5.178;2023-08-24T06:56:00;22.50;99.90
41838;DHT22;27511;52.042;5.178;2023-08-24T06:58:26;22.60;99.90
41838;DHT22;27511;52.042;5.178;2023-08-24T07:00:51;22.60;99.90
41838;DHT22;27511;52.042;5.178;2023-08-24T07:03:17;22.70;99.90
41838;DHT22;27511;52.042;5.178;2023-08-24T07:05:43;22.70;99.90
41838;DHT22;27511;52.042;5.178;2023-08-24T07:08:09;22.70;99.90
41838;DHT22;27511;52.042;5.178;2023-08-24T07:10:34;22.70;99.90
41838;DHT22;27511;52.042;5.178;2023-08-24T07:13:00;22.70;99.90
41838;DHT22;27511;52.042;5.178;2023-08-24T07:15:25;22.70;99.90
41838;DHT22;27511;52.042;5.178;2023-08-24T07:17:51;22.90;99.90
41838;DHT22;27511;52.042;5.178;2023-08-24T07:20:16;22.90;99.90
41838;DHT22;27511;52.042;5.178;2023-08-24T07:22:42;23.00;99.90
41838;DHT22;27511;52.042;5.178;2023-08-24T07:25:08;23.00;99.90
41838;DHT22;27511;52.042;5.178;2023-08-24T07:27:34;23.20;99.90
41838;DHT22;27511;52.042;5.178;2023-08-24T07:30:00;23.10;99.90
41838;DHT22;27511;52.042;5.178;2023-08-24T07:32:26;23.20;99.90
41838;DHT22;27511;52.042;5.178;2023-08-24T07:34:51;23.30;99.90
41838;DHT22;27511;52.042;5.178;2023-08-24T07:37:17;23.40;99.90
41838;DHT22;27511;52.042;5.178;2023-08-24T07:39:42;23.40;99.90
41838;DHT22;27511;52.042;5.178;2023-08-24T07:42:08;23.50;99.90
41838;DHT22;27511;52.042;5.178;2023-08-24T07:44:33;23.50;99.90
41838;DHT22;27511;52.042;5.178;2023-08-24T07:46:59;23.50;99.90
41838;DHT22;27511;52.042;5.178;2023-08-24T07:49:24;23.50;99.90
41838;DHT22;27511;52.042;5.178;2023-08-24T07:51:50;23.60;99.90
41838;DHT22;27511;52.042;5.178;2023-08-24T07:54:15;23.70;99.90
41838;DHT22;27511;52.042;5.178;2023-08-24T07:56:41;23.80;99.90
41838;DHT22;27511;52.042;5.178;2023-08-24T07:59:06;23.80;99.90
41838;DHT22;27511;52.042;5.178;2023-08-24T08:01:32;24.00;99.90
41838;DHT22;27511;52.042;5.178;2023-08-24T08:03:58;24.10;99.90
41838;DHT22;27511;52.042;5.178;2023-08-24T08:06:23;24.20;99.90
41838;DHT22;27511;52.042;5.178;2023-08-24T08:08:50;24.20;99.90
41838;DHT22;27511;52.042;5.178;2023-08-24T08:11:16;24.30;99.90
41838;DHT22;27511;52.042;5.178;2023-08-24T08:13:42;24.30;99.90
41838;DHT22;27511;52.042;5.178;2023-08-24T08:16:08;24.40;99.90
41838;DHT22;27511;52.042;5.178;2023-08-24T08:18:34;24.40;99.90
41838;DHT22;27511;52.042;5.178;2023-08-24T08:21:00;24.40;99.90
41838;DHT22;27511;52.042;5.178;2023-08-24T08:23:25;24.60;99.90
41838;DHT22;27511;52.042;5.178;2023-08-24T08:25:51;24.60;99.90
41838;DHT22;27511;52.042;5.178;2023-08-24T08:28:17;24.70;99.90
41838;DHT22;27511;52.042;5.178;2023-08-24T08:30:47;24.90;99.90
41838;DHT22;27511;52.042;5.178;2023-08-24T08:33:13;25.00;99.90
41838;DHT22;27511;52.042;5.178;2023-08-24T08:35:38;25.10;99.90
41838;DHT22;27511;52.042;5.178;2023-08-24T08:38:05;25.10;99.90
41838;DHT22;27511;52.042;5.178;2023-08-24T08:40:31;25.20;99.90
41838;DHT22;27511;52.042;5.178;2023-08-24T08:42:59;25.30;99.90
41838;DHT22;27511;52.042;5.178;2023-08-24T08:45:25;25.30;99.90
41838;DHT22;27511;52.042;5.178;2023-08-24T08:47:51;25.30;99.90
41838;DHT22;27511;52.042;5.178;2023-08-24T08:50:18;25.50;99.90
41838;DHT22;27511;52.042;5.178;2023-08-24T08:52:44;25.50;99.90
41838;DHT22;27511;52.042;5.178;2023-08-24T08:55:10;25.50;99.90
41838;DHT22;27511;52.042;5.178;2023-08-24T08:57:36;25.50;99.90
41838;DHT22;27511;52.042;5.178;2023-08-24T09:00:02;25.60;99.90
41838;DHT22;27511;52.042;5.178;2023-08-24T09:02:28;25.60;99.90
41838;DHT22;27511;52.042;5.178;2023-08-24T09:04:54;25.70;99.90
41838;DHT22;27511;52.042;5.178;2023-08-24T09:07:20;25.80;99.90
41838;DHT22;27511;52.042;5.178;2023-08-24T09:09:46;25.80;99.90
41838;DHT22;27511;52.042;5.178;2023-08-24T09:12:11;25.80;99.90
41838;DHT22;27511;52.042;5.178;2023-08-24T09:14:36;25.90;99.90
41838;DHT22;27511;52.042;5.178;2023-08-24T09:17:03;25.80;99.90
41838;DHT22;27511;52.042;5.178;2023-08-24T09:19:29;26.00;99.90
41838;DHT22;27511;52.042;5.178;2023-08-24T09:21:57;25.90;99.90
41838;DHT22;27511;52.042;5.178;2023-08-24T09:24:33;26.00;99.90
41838;DHT22;27511;52.042;5.178;2023-08-24T09:26:59;26.20;99.90
41838;DHT22;27511;52.042;5.178;2023-08-24T09:29:25;26.40;99.90
41838;DHT22;27511;52.042;5.178;2023-08-24T09:31:51;26.40;99.90
41838;DHT22;27511;52.042;5.178;2023-08-24T09:34:20;26.50;99.90
41838;DHT22;27511;52.042;5.178;2023-08-24T09:36:46;26.60;99.90
41838;DHT22;27511;52.042;5.178;2023-08-24T09:39:12;26.60;99.90
41838;DHT22;27511;52.042;5.178;2023-08-24T09:44:05;26.80;99.90
41838;DHT22;27511;52.042;5.178;2023-08-24T09:46:30;26.80;99.90
41838;DHT22;27511;52.042;5.178;2023-08-24T09:48:56;27.00;99.90
41838;DHT22;27511;52.042;5.178;2023-08-24T09:51:25;27.00;99.90
41838;DHT22;27511;52.042;5.178;2023-08-24T09:53:51;27.00;99.90
41838;DHT22;27511;52.042;5.178;2023-08-24T09:56:17;26.90;99.90
41838;DHT22;27511;52.042;5.178;2023-08-24T09:58:45;26.90;99.90
41838;DHT22;27511;52.042;5.178;2023-08-24T10:01:11;26.90;99.90
41838;DHT22;27511;52.042;5.178;2023-08-24T10:03:37;26.90;99.90
41838;DHT22;27511;52.042;5.178;2023-08-24T10:06:05;26.90;99.90
41838;DHT22;27511;52.042;5.178;2023-08-24T10:08:36;26.80;99.90
41838;DHT22;27511;52.042;5.178;2023-08-24T10:11:02;26.70;99.90
41838;DHT22;27511;52.042;5.178;2023-08-24T10:16:00;26.60;99.90
41838;DHT22;27511;52.042;5.178;2023-08-24T10:18:26;26.50;99.90
41838;DHT22;27511;52.042;5.178;2023-08-24T10:20:52;26.40;99.90
41838;DHT22;27511;52.042;5.178;2023-08-24T10:23:17;26.40;99.90
41838;DHT22;27511;52.042;5.178;2023-08-24T10:25:45;26.30;99.90
41838;DHT22;27511;52.042;5.178;2023-08-24T10:28:11;26.30;99.90
41838;DHT22;27511;52.042;5.178;2023-08-24T10:30:37;26.20;99.90
41838;DHT22;27511;52.042;5.178;2023-08-24T10:33:03;26.20;99.90
41838;DHT22;27511;52.042;5.178;2023-08-24T10:35:29;26.20;99.90
41838;DHT22;27511;52.042;5.178;2023-08-24T10:37:55;26.10;99.90
41838;DHT22;27511;52.042;5.178;2023-08-24T10:40:33;26.10;99.90
41838;DHT22;27511;52.042;5.178;2023-08-24T10:43:01;26.20;99.90
41838;DHT22;27511;52.042;5.178;2023-08-24T10:45:27;26.20;99.90
41838;DHT22;27511;52.042;5.178;2023-08-24T10:48:12;26.20;99.90
41838;DHT22;27511;52.042;5.178;2023-08-24T10:50:38;26.20;99.90
41838;DHT22;27511;52.042;5.178;2023-08-24T10:53:03;26.30;99.90
41838;DHT22;27511;52.042;5.178;2023-08-24T10:55:32;26.30;99.90
41838;DHT22;27511;52.042;5.178;2023-08-24T10:58:01;26.40;99.90
41838;DHT22;27511;52.042;5.178;2023-08-24T11:00:31;26.40;99.90
41838;DHT22;27511;52.042;5.178;2023-08-24T11:02:57;26.50;99.90
41838;DHT22;27511;52.042;5.178;2023-08-24T11:10:22;26.50;99.90
41838;DHT22;27511;52.042;5.178;2023-08-24T11:13:04;26.50;99.90
41838;DHT22;27511;52.042;5.178;2023-08-24T11:15:30;26.50;99.90
41838;DHT22;27511;52.042;5.178;2023-08-24T11:20:47;26.60;99.90
41838;DHT22;27511;52.042;5.178;2023-08-24T11:23:14;26.60;99.90
41838;DHT22;27511;52.042;5.178;2023-08-24T11:25:40;26.60;99.90
41838;DHT22;27511;52.042;5.178;2023-08-24T11:28:05;26.60;99.90
41838;DHT22;27511;52.042;5.178;2023-08-24T11:30:31;26.60;99.90
41838;DHT22;27511;52.042;5.178;2023-08-24T11:32:57;26.70;99.90
41838;DHT22;27511;52.042;5.178;2023-08-24T11:35:23;26.70;99.90
41838;DHT22;27511;52.042;5.178;2023-08-24T11:37:52;26.80;99.90
41838;DHT22;27511;52.042;5.178;2023-08-24T11:40:18;26.80;99.90
41838;DHT22;27511;52.042;5.178;2023-08-24T11:42:55;26.80;99.90
41838;DHT22;27511;52.042;5.178;2023-08-24T11:45:21;26.90;99.90
41838;DHT22;27511;52.042;5.178;2023-08-24T11:47:47;27.00;99.90
41838;DHT22;27511;52.042;5.178;2023-08-24T11:50:12;27.00;99.90
41838;DHT22;27511;52.042;5.178;2023-08-24T11:52:39;27.10;99.90
41838;DHT22;27511;52.042;5.178;2023-08-24T11:55:04;27.10;99.90
41838;DHT22;27511;52.042;5.178;2023-08-24T11:57:35;27.20;99.90
41838;DHT22;27511;52.042;5.178;2023-08-24T12:00:02;27.30;99.90
41838;DHT22;27511;52.042;5.178;2023-08-24T12:02:28;27.40;99.90
41838;DHT22;27511;52.042;5.178;2023-08-24T12:04:54;27.50;99.90
41838;DHT22;27511;52.042;5.178;2023-08-24T12:07:20;27.50;99.90
41838;DHT22;27511;52.042;5.178;2023-08-24T12:09:46;27.60;99.90
41838;DHT22;27511;52.042;5.178;2023-08-24T12:12:15;27.60;99.90
41838;DHT22;27511;52.042;5.178;2023-08-24T12:14:44;27.70;99.90
41838;DHT22;27511;52.042;5.178;2023-08-24T12:17:10;27.60;99.90
41838;DHT22;27511;52.042;5.178;2023-08-24T12:19:35;27.70;99.90
41838;DHT22;27511;52.042;5.178;2023-08-24T12:22:01;27.80;99.90
41838;DHT22;27511;52.042;5.178;2023-08-24T12:24:26;27.80;99.90
41838;DHT22;27511;52.042;5.178;2023-08-24T12:26:55;27.70;99.90
41838;DHT22;27511;52.042;5.178;2023-08-24T12:29:22;27.70;99.90
41838;DHT22;27511;52.042;5.178;2023-08-24T12:31:47;27.70;99.90
41838;DHT22;27511;52.042;5.178;2023-08-24T12:34:14;27.70;99.90
41838;DHT22;27511;52.042;5.178;2023-08-24T12:36:39;27.60;99.90
41838;DHT22;27511;52.042;5.178;2023-08-24T12:39:07;27.70;99.90
41838;DHT22;27511;52.042;5.178;2023-08-24T12:41:33;27.80;99.90
41838;DHT22;27511;52.042;5.178;2023-08-24T12:43:58;27.80;99.90
41838;DHT22;27511;52.042;5.178;2023-08-24T12:46:24;27.90;99.90
41838;DHT22;27511;52.042;5.178;2023-08-24T12:48:50;28.10;99.90
41838;DHT22;27511;52.042;5.178;2023-08-24T12:51:16;28.20;99.90
41838;DHT22;27511;52.042;5.178;2023-08-24T12:53:42;28.40;99.90
41838;DHT22;27511;52.042;5.178;2023-08-24T12:56:08;28.60;99.90
41838;DHT22;27511;52.042;5.178;2023-08-24T12:58:33;28.70;99.90
41838;DHT22;27511;52.042;5.178;2023-08-24T13:00:59;28.80;99.90
41838;DHT22;27511;52.042;5.178;2023-08-24T13:03:25;28.90;99.90
41838;DHT22;27511;52.042;5.178;2023-08-24T13:05:50;29.00;99.90
41838;DHT22;27511;52.042;5.178;2023-08-24T13:08:16;29.10;99.90
41838;DHT22;27511;52.042;5.178;2023-08-24T13:10:41;29.10;99.90
41838;DHT22;27511;52.042;5.178;2023-08-24T13:13:07;29.20;99.90
41838;DHT22;27511;52.042;5.178;2023-08-24T13:15:33;29.20;99.90
41838;DHT22;27511;52.042;5.178;2023-08-24T13:17:58;29.20;99.90
41838;DHT22;27511;52.042;5.178;2023-08-24T13:20:24;29.10;99.90
41838;DHT22;27511;52.042;5.178;2023-08-24T13:22:51;29.10;99.90
41838;DHT22;27511;52.042;5.178;2023-08-24T13:25:16;29.20;99.90
41838;DHT22;27511;52.042;5.178;2023-08-24T13:27:42;29.10;99.90
41838;DHT22;27511;52.042;5.178;2023-08-24T13:30:07;29.10;99.90
41838;DHT22;27511;52.042;5.178;2023-08-24T13:32:33;29.10;99.90
41838;DHT22;27511;52.042;5.178;2023-08-24T13:35:00;29.30;99.90
41838;DHT22;27511;52.042;5.178;2023-08-24T13:37:25;29.40;99.90
41838;DHT22;27511;52.042;5.178;2023-08-24T13:39:51;29.40;99.90
41838;DHT22;27511;52.042;5.178;2023-08-24T13:42:16;29.40;99.90
41838;DHT22;27511;52.042;5.178;2023-08-24T13:44:42;29.50;99.90
41838;DHT22;27511;52.042;5.178;2023-08-24T13:47:08;29.60;99.90
41838;DHT22;27511;52.042;5.178;2023-08-24T13:49:33;29.70;99.90
41838;DHT22;27511;52.042;5.178;2023-08-24T13:51:59;29.70;99.90
41838;DHT22;27511;52.042;5.178;2023-08-24T13:54:24;29.80;99.90
41838;DHT22;27511;52.042;5.178;2023-08-24T13:56:51;29.90;99.90
41838;DHT22;27511;52.042;5.178;2023-08-24T13:59:19;29.90;99.90
41838;DHT22;27511;52.042;5.178;2023-08-24T14:01:44;29.70;99.90
41838;DHT22;27511;52.042;5.178;2023-08-24T14:04:10;29.60;99.90
41838;DHT22;27511;52.042;5.178;2023-08-24T14:06:35;29.50;99.90
41838;DHT22;27511;52.042;5.178;2023-08-24T14:09:02;29.40;99.90
41838;DHT22;27511;52.042;5.178;2023-08-24T14:11:28;29.20;99.90
41838;DHT22;27511;52.042;5.178;2023-08-24T14:13:53;29.10;99.90
41838;DHT22;27511;52.042;5.178;2023-08-24T14:16:19;28.90;99.90
41838;DHT22;27511;52.042;5.178;2023-08-24T14:18:45;28.80;99.90
41838;DHT22;27511;52.042;5.178;2023-08-24T14:21:11;28.80;99.90
41838;DHT22;27511;52.042;5.178;2023-08-24T14:23:36;28.80;99.90
41838;DHT22;27511;52.042;5.178;2023-08-24T14:26:02;28.70;99.90
41838;DHT22;27511;52.042;5.178;2023-08-24T14:31:11;28.70;99.90
41838;DHT22;27511;52.042;5.178;2023-08-24T14:33:37;28.60;99.90
41838;DHT22;27511;52.042;5.178;2023-08-24T14:36:02;28.50;99.90
41838;DHT22;27511;52.042;5.178;2023-08-24T14:38:28;28.50;99.90
41838;DHT22;27511;52.042;5.178;2023-08-24T14:40:53;28.40;99.90
41838;DHT22;27511;52.042;5.178;2023-08-24T14:43:19;28.40;99.90
41838;DHT22;27511;52.042;5.178;2023-08-24T14:45:44;28.40;99.90
41838;DHT22;27511;52.042;5.178;2023-08-24T14:48:10;28.30;99.90
41838;DHT22;27511;52.042;5.178;2023-08-24T14:50:39;28.30;99.90
41838;DHT22;27511;52.042;5.178;2023-08-24T14:53:05;28.30;99.90
41838;DHT22;27511;52.042;5.178;2023-08-24T14:55:31;28.40;99.90
41838;DHT22;27511;52.042;5.178;2023-08-24T14:57:56;28.40;99.90
41838;DHT22;27511;52.042;5.178;2023-08-24T15:00:23;28.40;99.90
41838;DHT22;27511;52.042;5.178;2023-08-24T15:02:49;28.40;99.90
41838;DHT22;27511;52.042;5.178;2023-08-24T15:05:14;28.40;99.90
41838;DHT22;27511;52.042;5.178;2023-08-24T15:07:40;28.40;99.90
41838;DHT22;27511;52.042;5.178;2023-08-24T15:10:05;28.40;99.90
41838;DHT22;27511;52.042;5.178;2023-08-24T15:12:31;28.40;99.90
41838;DHT22;27511;52.042;5.178;2023-08-24T15:14:57;28.30;99.90
41838;DHT22;27511;52.042;5.178;2023-08-24T15:17:23;28.30;99.90
41838;DHT22;27511;52.042;5.178;2023-08-24T15:19:48;28.40;99.90
41838;DHT22;27511;52.042;5.178;2023-08-24T15:22:14;28.40;99.90
41838;DHT22;27511;52.042;5.178;2023-08-24T15:24:39;28.40;99.90
41838;DHT22;27511;52.042;5.178;2023-08-24T15:27:05;28.50;99.90
41838;DHT22;27511;52.042;5.178;2023-08-24T15:29:30;28.60;99.90
41838;DHT22;27511;52.042;5.178;2023-08-24T15:31:56;28.70;99.90
41838;DHT22;27511;52.042;5.178;2023-08-24T15:34:21;29.10;99.90
41838;DHT22;27511;52.042;5.178;2023-08-24T15:36:47;29.70;99.90
41838;DHT22;27511;52.042;5.178;2023-08-24T15:39:12;30.20;99.90
41838;DHT22;27511;52.042;5.178;2023-08-24T15:41:38;30.50;99.90
41838;DHT22;27511;52.042;5.178;2023-08-24T15:44:03;30.70;99.90
41838;DHT22;27511;52.042;5.178;2023-08-24T15:46:29;31.00;99.90
41838;DHT22;27511;52.042;5.178;2023-08-24T15:48:54;31.20;99.90
41838;DHT22;27511;52.042;5.178;2023-08-24T15:51:21;31.20;99.90